• Join FlightAware (Why Join?)
  • Login
  • US Flag 
02:01AM EDT


 

Airport Tracker/Info


-or-


 

Live Flight TrackerFlight Track Log ✈ DAL1562 ✈ 30-Apr-2013 ✈ KDTW - KPHL

Flight Track Log - Related Links

Times and Time Zones

All times are in EDT time to prevent confusion due to time zone crossing. See the DAL1562 flight status page for this flight to view local times or setup timezone preferences in your user account.

Time Position Orientation Groundspeed Altitude Reporting Facility
EDT Latitude Longitude Course Direction KTS MPH feet Rate Location/Type
02:27PM 42.2017 -83.3583 95° East 162 186 1,400  Level Cleveland Center
02:27PM 42.1828 -83.3603 184° South 178 205 2,300 2,460 Climbing Cleveland Center
02:28PM 42.1161 -83.3600 180° South 266 306 5,000 3,120 Climbing Cleveland Center
02:29PM 42.0589 -83.3100 147° Southeast 290 334 8,700 2,760 Climbing Cleveland Center
02:30PM 42.2167 -82.6140 90° East  Level FlightAware Approximate
02:30PM 42.0364 -83.1972 105° East 325 374 10,700  Level Cleveland Center
02:31PM 42.2164 -82.4293 95° East  Level FlightAware Approximate
02:31PM 42.0644 -83.0697 73° East 366 421 12,600  Level Cleveland Center
02:32PM 42.2050 -82.2452 95° East  Level FlightAware Approximate
02:32PM 42.0961 -82.9478 71° East 377 434 13,000  Level Cleveland Center
02:33PM 42.1344 -82.8008 71° East 389 448 15,800 2,520 Climbing Cleveland Center
02:34PM 42.1728 -82.6453 72° East 412 474 18,100 2,700 Climbing Cleveland Center
02:35PM 42.1922 -82.4861 81° East 424 488 21,300 2,580 Climbing Cleveland Center
02:36PM 42.1361 -82.3500 119° Southeast 395 455 23,300 1,620 Climbing Cleveland Center
02:37PM 42.0631 -82.2081 125° Southeast 417 480 24,600 1,260 Climbing Cleveland Center
02:38PM 41.9819 -82.0497 125° Southeast 450 518 25,900 1,620 Climbing Cleveland Center
02:39PM 41.9064 -81.9028 125° Southeast 476 548 27,900 1,860 Climbing Cleveland Center
02:40PM 41.8308 -81.7592 125° Southeast 482 555 29,700 1,860 Climbing Cleveland Center
02:41PM 41.7572 -81.6186 125° Southeast 477 549 31,700 1,620 Climbing Cleveland Center
02:42PM 41.6833 -81.4756 125° Southeast 467 537 33,000 600 Climbing Cleveland Center
02:43PM 41.6156 -81.3497 126° Southeast 467 537 33,000  Level Cleveland Center
02:44PM 41.5414 -81.2100 125° Southeast 474 545 33,000  Level Cleveland Center
02:45PM 41.4564 -81.0819 132° Southeast 468 539 33,000  Level Cleveland Center
02:46PM 41.3672 -80.9539 133° Southeast 459 528 33,000  Level Cleveland Center
02:47PM 41.2697 -80.8236 135° Southeast 454 522 33,000  Level Cleveland Center
02:48PM 41.1825 -80.6989 133° Southeast 459 528 33,000  Level Cleveland Center
02:49PM 41.1033 -80.5886 134° Southeast 459 528 33,000  Level Cleveland Center
02:50PM 41.0178 -80.4675 133° Southeast 454 522 33,000  Level Cleveland Center
02:51PM 40.9300 -80.3467 134° Southeast 454 522 33,000  Level Cleveland Center
02:52PM 40.8378 -80.2236 135° Southeast 459 528 33,000  Level Cleveland Center
02:53PM 40.7789 -80.0814 119° Southeast 451 519 33,000  Level Cleveland Center
02:54PM 40.7242 -79.9283 115° Southeast 451 519 33,000  Level Cleveland Center
02:55PM 40.6711 -79.7811 115° Southeast 446 513 33,000  Level Cleveland Center
02:56PM 40.6178 -79.6311 115° Southeast 446 513 33,000  Level Cleveland Center
02:57PM 40.5622 -79.4844 116° Southeast 446 513 33,000  Level Cleveland Center
02:58PM 40.5189 -79.3322 110° East 446 513 33,000  Level Cleveland Center
02:59PM 40.4919 -79.1717 102° East 439 505 33,000  Level Cleveland Center
03:00PM 40.4692 -79.0167 101° East 439 505 33,000  Level Cleveland Center
03:01PM 40.4461 -78.8561 101° East 434 499 33,000  Level Cleveland Center
03:02PM 40.4247 -78.6986 100° East 439 505 33,000  Level Cleveland Center
03:03PM 40.3947 -78.5222 103° East 445 512 33,000 -360 Level Cleveland Center
03:05PM 40.3656 -78.2983 100° East 472 543 32,200 -1,920 Descending New York Center
03:06PM 40.3403 -78.1375 102° East 466 536 28,300 -3,480 Descending New York Center
03:07PM 40.3150 -77.9717 101° East 455 524 25,300 -1,920 Descending New York Center
03:08PM 40.3122 -77.8106 91° East 449 517 24,500 -1,380 Descending New York Center
03:09PM 40.3089 -77.6522 92° East 444 511 22,700 -1,560 Descending New York Center
03:10PM 40.3094 -77.4972 90° East 444 511 21,500 -1,200 Descending New York Center
03:11PM 40.3039 -77.3358 93° East 444 511 20,400 -1,200 Descending New York Center
03:12PM 40.2789 -77.1867 102° East 439 505 19,200 -1,200 Descending New York Center
03:13PM 40.2500 -77.0233 103° East 418 481 18,000 -600 Descending New York Center
03:14PM 40.2244 -76.8742 103° East 419 482 18,000 -1,020 Level New York Center
03:15PM 40.2019 -76.7472 103° East 414 476 16,000 -1,860 Descending New York Center
03:16PM 40.1775 -76.6092 103° East 399 459 14,400 -2,040 Descending New York Center
03:17PM 40.1533 -76.4661 102° East 377 434 12,000 -1,740 Descending New York Center
03:18PM 40.1297 -76.3444 104° East 362 417 11,000 -600 Descending New York Center
03:19PM 40.1164 -76.2322 99° East 351 404 10,800 -540 Descending New York Center
03:20PM 40.1086 -76.1256 95° East 326 375 10,000 -1,140 Descending New York Center
03:21PM 40.0992 -76.0136 96° East 287 330 8,600 -1,020 Descending New York Center
03:22PM 40.0931 -75.9128 94° East 280 322 8,000 -300 Descending New York Center
03:23PM 40.0822 -75.8278 99° East 269 310 8,000 -600 Level New York Center
03:24PM 40.0231 -75.7503 135° Southeast 261 300 6,900 -1,380 Descending New York Center
03:25PM 39.9775 -75.6903 135° Southeast 266 306 5,300 -1,500 Descending New York Center
03:26PM 39.9222 -75.6186 135° Southeast 261 300 4,000 -1,200 Descending New York Center
03:27PM 39.8786 -75.5589 134° Southeast 256 295 3,000 -900 Descending New York Center
03:28PM 39.8481 -75.4892 120° Southeast 220 253 2,300 -720 Descending New York Center